sensor_id;sensor_type;location;lat;lon;timestamp;temperature;humidity
63094;DHT22;49183;51.380;0.098;2022-09-12T00:01:14;16.60;83.90
63094;DHT22;49183;51.380;0.098;2022-09-12T00:03:42;16.60;84.20
63094;DHT22;49183;51.380;0.098;2022-09-12T00:06:19;16.50;84.40
63094;DHT22;49183;51.380;0.098;2022-09-12T00:08:52;16.50;84.60
63094;DHT22;49183;51.380;0.098;2022-09-12T00:11:20;16.50;84.80
63094;DHT22;49183;51.380;0.098;2022-09-12T00:13:47;16.40;85.00
63094;DHT22;49183;51.380;0.098;2022-09-12T00:16:20;16.40;85.30
63094;DHT22;49183;51.380;0.098;2022-09-12T00:18:49;16.30;85.60
63094;DHT22;49183;51.380;0.098;2022-09-12T00:21:17;16.30;85.70
63094;DHT22;49183;51.380;0.098;2022-09-12T00:23:45;16.30;85.90
63094;DHT22;49183;51.380;0.098;2022-09-12T00:26:14;16.20;86.10
63094;DHT22;49183;51.380;0.098;2022-09-12T00:28:42;16.20;86.40
63094;DHT22;49183;51.380;0.098;2022-09-12T00:31:16;16.20;86.80
63094;DHT22;49183;51.380;0.098;2022-09-12T00:33:45;16.10;87.00
63094;DHT22;49183;51.380;0.098;2022-09-12T00:36:16;16.10;87.10
63094;DHT22;49183;51.380;0.098;2022-09-12T00:38:44;16.10;87.30
63094;DHT22;49183;51.380;0.098;2022-09-12T00:41:21;16.00;87.50
63094;DHT22;49183;51.380;0.098;2022-09-12T00:43:52;16.00;87.70
63094;DHT22;49183;51.380;0.098;2022-09-12T00:57:32;15.90;88.20
63094;DHT22;49183;51.380;0.098;2022-09-12T01:00:15;15.90;88.30
63094;DHT22;49183;51.380;0.098;2022-09-12T01:02:49;15.90;88.30
63094;DHT22;49183;51.380;0.098;2022-09-12T01:05:18;15.90;88.50
63094;DHT22;49183;51.380;0.098;2022-09-12T01:07:46;15.90;88.60
63094;DHT22;49183;51.380;0.098;2022-09-12T01:10:18;15.80;88.70
63094;DHT22;49183;51.380;0.098;2022-09-12T01:12:46;15.80;88.70
63094;DHT22;49183;51.380;0.098;2022-09-12T01:15:14;15.80;88.90
63094;DHT22;49183;51.380;0.098;2022-09-12T01:17:59;15.80;89.00
63094;DHT22;49183;51.380;0.098;2022-09-12T01:35:19;15.60;89.60
63094;DHT22;49183;51.380;0.098;2022-09-12T01:45:52;15.50;90.00
63094;DHT22;49183;51.380;0.098;2022-09-12T01:48:26;15.50;90.10
63094;DHT22;49183;51.380;0.098;2022-09-12T01:53:31;15.50;90.20
63094;DHT22;49183;51.380;0.098;2022-09-12T01:56:22;15.50;90.20
63094;DHT22;49183;51.380;0.098;2022-09-12T01:59:02;15.50;90.30
63094;DHT22;49183;51.380;0.098;2022-09-12T02:01:32;15.50;90.30
63094;DHT22;49183;51.380;0.098;2022-09-12T02:07:01;15.40;90.40
63094;DHT22;49183;51.380;0.098;2022-09-12T02:09:36;15.40;90.40
63094;DHT22;49183;51.380;0.098;2022-09-12T02:12:07;15.40;90.40
63094;DHT22;49183;51.380;0.098;2022-09-12T02:14:40;15.40;90.40
63094;DHT22;49183;51.380;0.098;2022-09-12T02:17:12;15.40;90.60
63094;DHT22;49183;51.380;0.098;2022-09-12T02:19:44;15.40;90.60
63094;DHT22;49183;51.380;0.098;2022-09-12T02:22:16;15.50;90.70
63094;DHT22;49183;51.380;0.098;2022-09-12T02:24:48;15.50;90.70
63094;DHT22;49183;51.380;0.098;2022-09-12T02:27:23;15.50;90.70
63094;DHT22;49183;51.380;0.098;2022-09-12T02:29:52;15.50;90.70
63094;DHT22;49183;51.380;0.098;2022-09-12T02:32:31;15.50;90.80
63094;DHT22;49183;51.380;0.098;2022-09-12T02:40:29;15.50;90.80
63094;DHT22;49183;51.380;0.098;2022-09-12T02:42:57;15.50;90.80
63094;DHT22;49183;51.380;0.098;2022-09-12T02:45:26;15.50;90.80
63094;DHT22;49183;51.380;0.098;2022-09-12T02:48:00;15.50;90.90
63094;DHT22;49183;51.380;0.098;2022-09-12T02:50:29;15.50;90.90
63094;DHT22;49183;51.380;0.098;2022-09-12T02:52:57;15.50;90.90
63094;DHT22;49183;51.380;0.098;2022-09-12T02:55:32;15.50;90.90
63094;DHT22;49183;51.380;0.098;2022-09-12T02:58:03;15.50;90.90
63094;DHT22;49183;51.380;0.098;2022-09-12T03:00:41;15.50;91.00
63094;DHT22;49183;51.380;0.098;2022-09-12T03:05:56;15.50;91.00
63094;DHT22;49183;51.380;0.098;2022-09-12T03:19:47;15.30;91.20
63094;DHT22;49183;51.380;0.098;2022-09-12T03:22:38;15.40;91.30
63094;DHT22;49183;51.380;0.098;2022-09-12T03:25:17;15.30;91.30
63094;DHT22;49183;51.380;0.098;2022-09-12T03:28:10;15.30;91.40
63094;DHT22;49183;51.380;0.098;2022-09-12T03:30:42;15.30;91.30
63094;DHT22;49183;51.380;0.098;2022-09-12T03:33:15;15.30;91.30
63094;DHT22;49183;51.380;0.098;2022-09-12T03:35:45;15.40;91.30
63094;DHT22;49183;51.380;0.098;2022-09-12T03:38:13;15.30;91.40
63094;DHT22;49183;51.380;0.098;2022-09-12T03:40:41;15.30;91.30
63094;DHT22;49183;51.380;0.098;2022-09-12T03:43:09;15.40;91.40
63094;DHT22;49183;51.380;0.098;2022-09-12T03:45:37;15.30;91.40
63094;DHT22;49183;51.380;0.098;2022-09-12T03:48:05;15.40;91.40
63094;DHT22;49183;51.380;0.098;2022-09-12T03:50:33;15.40;91.40
63094;DHT22;49183;51.380;0.098;2022-09-12T03:53:02;15.40;91.40
63094;DHT22;49183;51.380;0.098;2022-09-12T03:55:30;15.40;91.40
63094;DHT22;49183;51.380;0.098;2022-09-12T03:57:57;15.40;91.40
63094;DHT22;49183;51.380;0.098;2022-09-12T04:00:25;15.40;91.40
63094;DHT22;49183;51.380;0.098;2022-09-12T04:02:55;15.40;91.40
63094;DHT22;49183;51.380;0.098;2022-09-12T04:05:24;15.50;91.40
63094;DHT22;49183;51.380;0.098;2022-09-12T04:07:52;15.40;91.40
63094;DHT22;49183;51.380;0.098;2022-09-12T04:10:19;15.40;91.40
63094;DHT22;49183;51.380;0.098;2022-09-12T04:12:47;15.40;91.40
63094;DHT22;49183;51.380;0.098;2022-09-12T04:15:15;15.50;91.40
63094;DHT22;49183;51.380;0.098;2022-09-12T04:17:42;15.40;91.40
63094;DHT22;49183;51.380;0.098;2022-09-12T04:20:10;15.40;91.40
63094;DHT22;49183;51.380;0.098;2022-09-12T04:22:37;15.50;91.40
63094;DHT22;49183;51.380;0.098;2022-09-12T04:25:05;15.40;91.40
63094;DHT22;49183;51.380;0.098;2022-09-12T04:27:33;15.50;91.40
63094;DHT22;49183;51.380;0.098;2022-09-12T04:30:01;15.50;91.40
63094;DHT22;49183;51.380;0.098;2022-09-12T04:32:30;15.50;91.40
63094;DHT22;49183;51.380;0.098;2022-09-12T04:34:58;15.50;91.40
63094;DHT22;49183;51.380;0.098;2022-09-12T04:37:25;15.50;91.40
63094;DHT22;49183;51.380;0.098;2022-09-12T04:39:53;15.40;91.40
63094;DHT22;49183;51.380;0.098;2022-09-12T04:42:24;15.40;91.40
63094;DHT22;49183;51.380;0.098;2022-09-12T04:44:51;15.50;91.40
63094;DHT22;49183;51.380;0.098;2022-09-12T04:47:19;15.40;91.40
63094;DHT22;49183;51.380;0.098;2022-09-12T04:49:47;15.50;91.50
63094;DHT22;49183;51.380;0.098;2022-09-12T04:52:16;15.40;91.50
63094;DHT22;49183;51.380;0.098;2022-09-12T04:54:43;15.40;91.50
63094;DHT22;49183;51.380;0.098;2022-09-12T04:57:11;15.40;91.50
63094;DHT22;49183;51.380;0.098;2022-09-12T04:59:39;15.40;91.50
63094;DHT22;49183;51.380;0.098;2022-09-12T05:02:07;15.40;91.60
63094;DHT22;49183;51.380;0.098;2022-09-12T05:04:34;15.40;91.60
63094;DHT22;49183;51.380;0.098;2022-09-12T05:07:02;15.40;91.60
63094;DHT22;49183;51.380;0.098;2022-09-12T05:09:30;15.40;91.60
63094;DHT22;49183;51.380;0.098;2022-09-12T05:11:58;15.40;91.60
63094;DHT22;49183;51.380;0.098;2022-09-12T05:14:31;15.40;91.60
63094;DHT22;49183;51.380;0.098;2022-09-12T05:17:00;15.40;91.60
63094;DHT22;49183;51.380;0.098;2022-09-12T05:19:29;15.40;91.70
63094;DHT22;49183;51.380;0.098;2022-09-12T05:21:57;15.30;91.70
63094;DHT22;49183;51.380;0.098;2022-09-12T05:24:25;15.40;91.70
63094;DHT22;49183;51.380;0.098;2022-09-12T05:26:53;15.30;91.70
63094;DHT22;49183;51.380;0.098;2022-09-12T05:29:20;15.30;91.80
63094;DHT22;49183;51.380;0.098;2022-09-12T05:31:48;15.30;91.80
63094;DHT22;49183;51.380;0.098;2022-09-12T05:34:19;15.30;91.90
63094;DHT22;49183;51.380;0.098;2022-09-12T05:36:47;15.30;91.90
63094;DHT22;49183;51.380;0.098;2022-09-12T05:39:14;15.30;92.00
63094;DHT22;49183;51.380;0.098;2022-09-12T05:41:42;15.30;92.00
63094;DHT22;49183;51.380;0.098;2022-09-12T05:44:11;15.30;92.10
63094;DHT22;49183;51.380;0.098;2022-09-12T05:46:42;15.30;92.10
63094;DHT22;49183;51.380;0.098;2022-09-12T05:49:12;15.30;92.10
63094;DHT22;49183;51.380;0.098;2022-09-12T05:51:42;15.30;92.20
63094;DHT22;49183;51.380;0.098;2022-09-12T05:54:12;15.30;92.20
63094;DHT22;49183;51.380;0.098;2022-09-12T05:56:42;15.30;92.20
63094;DHT22;49183;51.380;0.098;2022-09-12T05:59:13;15.30;92.20
63094;DHT22;49183;51.380;0.098;2022-09-12T06:01:41;15.30;92.20
63094;DHT22;49183;51.380;0.098;2022-09-12T06:04:09;15.30;92.20
63094;DHT22;49183;51.380;0.098;2022-09-12T06:06:40;15.30;92.20
63094;DHT22;49183;51.380;0.098;2022-09-12T06:09:09;15.30;92.20
63094;DHT22;49183;51.380;0.098;2022-09-12T06:11:38;15.30;92.20
63094;DHT22;49183;51.380;0.098;2022-09-12T06:14:08;15.30;92.20
63094;DHT22;49183;51.380;0.098;2022-09-12T06:16:37;15.30;92.20
63094;DHT22;49183;51.380;0.098;2022-09-12T06:19:16;15.30;92.30
63094;DHT22;49183;51.380;0.098;2022-09-12T06:21:45;15.30;92.40
63094;DHT22;49183;51.380;0.098;2022-09-12T06:24:14;15.30;92.40
63094;DHT22;49183;51.380;0.098;2022-09-12T06:26:42;15.30;92.50
63094;DHT22;49183;51.380;0.098;2022-09-12T06:29:10;15.30;92.50
63094;DHT22;49183;51.380;0.098;2022-09-12T06:31:40;15.30;92.50
63094;DHT22;49183;51.380;0.098;2022-09-12T06:34:10;15.40;92.60
63094;DHT22;49183;51.380;0.098;2022-09-12T06:36:47;15.40;92.60
63094;DHT22;49183;51.380;0.098;2022-09-12T06:39:17;15.40;92.60
63094;DHT22;49183;51.380;0.098;2022-09-12T06:41:45;15.40;92.60
63094;DHT22;49183;51.380;0.098;2022-09-12T06:44:17;15.40;92.60
63094;DHT22;49183;51.380;0.098;2022-09-12T06:46:46;15.50;92.60
63094;DHT22;49183;51.380;0.098;2022-09-12T06:49:14;15.50;92.70
63094;DHT22;49183;51.380;0.098;2022-09-12T06:51:41;15.50;92.70
63094;DHT22;49183;51.380;0.098;2022-09-12T06:54:12;15.50;92.70
63094;DHT22;49183;51.380;0.098;2022-09-12T06:56:40;15.60;92.70
63094;DHT22;49183;51.380;0.098;2022-09-12T06:59:08;15.60;92.70
63094;DHT22;49183;51.380;0.098;2022-09-12T07:01:35;15.60;92.70
63094;DHT22;49183;51.380;0.098;2022-09-12T07:04:03;15.60;92.70
63094;DHT22;49183;51.380;0.098;2022-09-12T07:06:41;15.60;92.70
63094;DHT22;49183;51.380;0.098;2022-09-12T07:09:13;15.70;92.60
63094;DHT22;49183;51.380;0.098;2022-09-12T07:11:44;15.70;92.60
63094;DHT22;49183;51.380;0.098;2022-09-12T07:14:12;15.70;92.60
63094;DHT22;49183;51.380;0.098;2022-09-12T07:16:40;15.70;92.60
63094;DHT22;49183;51.380;0.098;2022-09-12T07:19:09;15.70;92.60
63094;DHT22;49183;51.380;0.098;2022-09-12T07:21:36;15.70;92.60
63094;DHT22;49183;51.380;0.098;2022-09-12T07:24:08;15.80;92.60
63094;DHT22;49183;51.380;0.098;2022-09-12T07:26:38;15.90;92.60
63094;DHT22;49183;51.380;0.098;2022-09-12T07:29:08;15.90;92.50
63094;DHT22;49183;51.380;0.098;2022-09-12T07:31:59;16.00;92.50
63094;DHT22;49183;51.380;0.098;2022-09-12T07:34:29;16.10;92.50
63094;DHT22;49183;51.380;0.098;2022-09-12T07:36:56;16.10;92.50
63094;DHT22;49183;51.380;0.098;2022-09-12T07:39:24;16.20;92.50
63094;DHT22;49183;51.380;0.098;2022-09-12T07:41:52;16.30;92.50
63094;DHT22;49183;51.380;0.098;2022-09-12T07:44:20;16.60;92.40
63094;DHT22;49183;51.380;0.098;2022-09-12T07:46:48;16.80;92.30
63094;DHT22;49183;51.380;0.098;2022-09-12T07:49:17;16.90;92.10
63094;DHT22;49183;51.380;0.098;2022-09-12T07:51:44;17.00;92.00
63094;DHT22;49183;51.380;0.098;2022-09-12T07:54:12;17.10;91.70
63094;DHT22;49183;51.380;0.098;2022-09-12T07:56:40;17.30;91.50
63094;DHT22;49183;51.380;0.098;2022-09-12T07:59:08;17.30;91.40
63094;DHT22;49183;51.380;0.098;2022-09-12T08:01:38;17.40;91.20
63094;DHT22;49183;51.380;0.098;2022-09-12T08:04:08;17.40;91.00
63094;DHT22;49183;51.380;0.098;2022-09-12T08:06:36;17.50;90.90
63094;DHT22;49183;51.380;0.098;2022-09-12T08:09:04;17.50;90.80
63094;DHT22;49183;51.380;0.098;2022-09-12T08:11:32;17.60;90.70
63094;DHT22;49183;51.380;0.098;2022-09-12T08:13:59;17.70;90.60
63094;DHT22;49183;51.380;0.098;2022-09-12T08:16:30;17.80;90.40
63094;DHT22;49183;51.380;0.098;2022-09-12T08:19:01;17.80;90.30
63094;DHT22;49183;51.380;0.098;2022-09-12T08:21:30;17.80;90.10
63094;DHT22;49183;51.380;0.098;2022-09-12T08:24:01;17.80;90.10
63094;DHT22;49183;51.380;0.098;2022-09-12T08:26:30;17.90;89.90
63094;DHT22;49183;51.380;0.098;2022-09-12T08:28:58;17.90;89.80
63094;DHT22;49183;51.380;0.098;2022-09-12T08:31:27;17.90;89.70
63094;DHT22;49183;51.380;0.098;2022-09-12T08:33:57;18.00;89.70
63094;DHT22;49183;51.380;0.098;2022-09-12T08:36:26;18.00;89.60
63094;DHT22;49183;51.380;0.098;2022-09-12T08:38:56;18.10;89.60
63094;DHT22;49183;51.380;0.098;2022-09-12T08:41:32;18.20;89.40
63094;DHT22;49183;51.380;0.098;2022-09-12T08:49:28;18.50;89.10
63094;DHT22;49183;51.380;0.098;2022-09-12T08:52:01;18.70;89.00
63094;DHT22;49183;51.380;0.098;2022-09-12T08:54:32;18.80;88.60
63094;DHT22;49183;51.380;0.098;2022-09-12T08:57:01;18.80;88.40
63094;DHT22;49183;51.380;0.098;2022-09-12T08:59:38;18.80;88.30
63094;DHT22;49183;51.380;0.098;2022-09-12T09:05:11;18.90;88.10
63094;DHT22;49183;51.380;0.098;2022-09-12T09:16:31;19.00;87.50
63094;DHT22;49183;51.380;0.098;2022-09-12T09:19:20;19.10;87.40
63094;DHT22;49183;51.380;0.098;2022-09-12T09:24:42;19.40;86.90
63094;DHT22;49183;51.380;0.098;2022-09-12T09:27:30;19.50;86.50
63094;DHT22;49183;51.380;0.098;2022-09-12T09:30:14;19.50;86.40
63094;DHT22;49183;51.380;0.098;2022-09-12T09:32:44;19.60;86.40
63094;DHT22;49183;51.380;0.098;2022-09-12T09:38:00;19.90;85.80
63094;DHT22;49183;51.380;0.098;2022-09-12T09:41:15;20.00;85.60
63094;DHT22;49183;51.380;0.098;2022-09-12T09:43:23;20.10;85.40
63094;DHT22;49183;51.380;0.098;2022-09-12T09:45:55;20.20;85.10
63094;DHT22;49183;51.380;0.098;2022-09-12T09:48:30;20.30;85.00
63094;DHT22;49183;51.380;0.098;2022-09-12T09:51:00;20.40;84.90
63094;DHT22;49183;51.380;0.098;2022-09-12T09:53:51;20.50;84.40
63094;DHT22;49183;51.380;0.098;2022-09-12T09:56:29;20.50;84.10
63094;DHT22;49183;51.380;0.098;2022-09-12T09:59:20;20.50;83.70
63094;DHT22;49183;51.380;0.098;2022-09-12T10:04:26;20.60;83.50
63094;DHT22;49183;51.380;0.098;2022-09-12T10:07:00;20.70;83.40
63094;DHT22;49183;51.380;0.098;2022-09-12T10:09:37;20.70;83.10
63094;DHT22;49183;51.380;0.098;2022-09-12T10:12:21;20.80;83.10
63094;DHT22;49183;51.380;0.098;2022-09-12T10:14:59;20.90;83.00
63094;DHT22;49183;51.380;0.098;2022-09-12T10:17:44;21.00;82.90
63094;DHT22;49183;51.380;0.098;2022-09-12T10:20:32;21.20;83.00
63094;DHT22;49183;51.380;0.098;2022-09-12T10:23:46;21.50;82.70
63094;DHT22;49183;51.380;0.098;2022-09-12T10:25:59;21.80;82.00
63094;DHT22;49183;51.380;0.098;2022-09-12T10:28:40;21.90;81.50
63094;DHT22;49183;51.380;0.098;2022-09-12T10:31:13;21.90;80.90
63094;DHT22;49183;51.380;0.098;2022-09-12T10:33:45;22.00;80.40
63094;DHT22;49183;51.380;0.098;2022-09-12T10:36:15;22.10;80.00
63094;DHT22;49183;51.380;0.098;2022-09-12T10:38:58;22.20;79.50
63094;DHT22;49183;51.380;0.098;2022-09-12T10:41:38;22.30;79.20
63094;DHT22;49183;51.380;0.098;2022-09-12T10:44:11;22.50;79.20
63094;DHT22;49183;51.380;0.098;2022-09-12T10:46:40;22.60;78.70
63094;DHT22;49183;51.380;0.098;2022-09-12T10:49:21;22.80;78.10
63094;DHT22;49183;51.380;0.098;2022-09-12T10:51:50;22.80;77.30
63094;DHT22;49183;51.380;0.098;2022-09-12T10:54:20;22.90;76.70
63094;DHT22;49183;51.380;0.098;2022-09-12T10:56:58;23.00;76.20
63094;DHT22;49183;51.380;0.098;2022-09-12T11:05:01;23.80;75.70
63094;DHT22;49183;51.380;0.098;2022-09-12T11:10:23;24.00;73.40
63094;DHT22;49183;51.380;0.098;2022-09-12T11:23:34;23.90;73.60
63094;DHT22;49183;51.380;0.098;2022-09-12T11:40:52;23.80;72.10
63094;DHT22;49183;51.380;0.098;2022-09-12T11:43:31;23.90;72.20
63094;DHT22;49183;51.380;0.098;2022-09-12T11:48:56;23.70;71.80
63094;DHT22;49183;51.380;0.098;2022-09-12T11:54:35;23.20;72.60
63094;DHT22;49183;51.380;0.098;2022-09-12T11:57:15;22.90;73.00
63094;DHT22;49183;51.380;0.098;2022-09-12T11:59:51;22.80;73.00
63094;DHT22;49183;51.380;0.098;2022-09-12T12:02:30;22.50;73.30
63094;DHT22;49183;51.380;0.098;2022-09-12T12:07:42;22.50;73.50
63094;DHT22;49183;51.380;0.098;2022-09-12T12:10:36;22.50;73.30
63094;DHT22;49183;51.380;0.098;2022-09-12T12:13:16;22.50;73.10
63094;DHT22;49183;51.380;0.098;2022-09-12T12:18:43;22.30;73.40
63094;DHT22;49183;51.380;0.098;2022-09-12T12:29:39;21.90;74.50
63094;DHT22;49183;51.380;0.098;2022-09-12T12:32:18;21.90;74.30
63094;DHT22;49183;51.380;0.098;2022-09-12T12:34:46;21.80;74.60
63094;DHT22;49183;51.380;0.098;2022-09-12T12:39:58;21.80;75.20
63094;DHT22;49183;51.380;0.098;2022-09-12T12:50:22;21.60;75.70
63094;DHT22;49183;51.380;0.098;2022-09-12T12:53:23;21.40;76.00
63094;DHT22;49183;51.380;0.098;2022-09-12T12:55:53;21.30;76.40
63094;DHT22;49183;51.380;0.098;2022-09-12T12:58:30;21.10;76.90
63094;DHT22;49183;51.380;0.098;2022-09-12T13:03:43;20.90;77.90
63094;DHT22;49183;51.380;0.098;2022-09-12T13:06:31;20.70;78.20
63094;DHT22;49183;51.380;0.098;2022-09-12T13:09:30;20.60;78.60
63094;DHT22;49183;51.380;0.098;2022-09-12T13:12:08;20.50;78.90
63094;DHT22;49183;51.380;0.098;2022-09-12T13:14:59;20.40;79.30
63094;DHT22;49183;51.380;0.098;2022-09-12T13:17:40;20.40;79.70
63094;DHT22;49183;51.380;0.098;2022-09-12T13:22:57;20.30;80.40
63094;DHT22;49183;51.380;0.098;2022-09-12T13:28:00;20.10;81.30
63094;DHT22;49183;51.380;0.098;2022-09-12T13:30:56;20.00;81.60
63094;DHT22;49183;51.380;0.098;2022-09-12T13:33:51;19.90;82.10
63094;DHT22;49183;51.380;0.098;2022-09-12T13:45:24;19.30;84.70
63094;DHT22;49183;51.380;0.098;2022-09-12T13:47:59;19.10;85.10
63094;DHT22;49183;51.380;0.098;2022-09-12T13:50:49;19.10;85.40
63094;DHT22;49183;51.380;0.098;2022-09-12T13:53:22;18.90;85.80
63094;DHT22;49183;51.380;0.098;2022-09-12T13:55:56;18.80;86.30
63094;DHT22;49183;51.380;0.098;2022-09-12T13:58:30;18.80;86.60
63094;DHT22;49183;51.380;0.098;2022-09-12T14:01:19;18.80;87.00
63094;DHT22;49183;51.380;0.098;2022-09-12T14:03:50;18.80;87.50
63094;DHT22;49183;51.380;0.098;2022-09-12T14:06:50;18.70;87.60
63094;DHT22;49183;51.380;0.098;2022-09-12T14:09:29;18.60;87.90
63094;DHT22;49183;51.380;0.098;2022-09-12T14:11:59;18.60;88.10
63094;DHT22;49183;51.380;0.098;2022-09-12T14:14:36;18.50;88.60
63094;DHT22;49183;51.380;0.098;2022-09-12T14:17:27;18.40;88.80
63094;DHT22;49183;51.380;0.098;2022-09-12T14:20:00;18.40;89.10
63094;DHT22;49183;51.380;0.098;2022-09-12T14:22:32;18.30;89.20
63094;DHT22;49183;51.380;0.098;2022-09-12T14:25:00;18.30;89.40
63094;DHT22;49183;51.380;0.098;2022-09-12T14:27:34;18.30;89.50
63094;DHT22;49183;51.380;0.098;2022-09-12T14:30:18;18.30;89.60
63094;DHT22;49183;51.380;0.098;2022-09-12T14:35:29;18.30;89.80
63094;DHT22;49183;51.380;0.098;2022-09-12T14:38:07;18.30;89.80
63094;DHT22;49183;51.380;0.098;2022-09-12T14:40:47;18.30;89.90
63094;DHT22;49183;51.380;0.098;2022-09-12T14:43:40;18.30;90.00
63094;DHT22;49183;51.380;0.098;2022-09-12T14:46:24;18.30;90.10
63094;DHT22;49183;51.380;0.098;2022-09-12T14:49:05;18.30;90.10
63094;DHT22;49183;51.380;0.098;2022-09-12T14:51:37;18.30;90.20
63094;DHT22;49183;51.380;0.098;2022-09-12T14:54:04;18.30;90.20
63094;DHT22;49183;51.380;0.098;2022-09-12T14:56:43;18.30;90.20
63094;DHT22;49183;51.380;0.098;2022-09-12T15:02:24;18.30;90.40
63094;DHT22;49183;51.380;0.098;2022-09-12T15:04:58;18.40;90.40
63094;DHT22;49183;51.380;0.098;2022-09-12T15:07:42;18.40;90.40
63094;DHT22;49183;51.380;0.098;2022-09-12T15:10:21;18.40;90.40
63094;DHT22;49183;51.380;0.098;2022-09-12T15:13:08;18.40;90.50
63094;DHT22;49183;51.380;0.098;2022-09-12T15:15:39;18.50;90.50
63094;DHT22;49183;51.380;0.098;2022-09-12T15:18:08;18.60;90.50
63094;DHT22;49183;51.380;0.098;2022-09-12T15:20:37;18.60;90.40
63094;DHT22;49183;51.380;0.098;2022-09-12T15:23:12;18.60;90.50
63094;DHT22;49183;51.380;0.098;2022-09-12T15:25:40;18.70;90.50
63094;DHT22;49183;51.380;0.098;2022-09-12T15:28:18;18.70;90.50
63094;DHT22;49183;51.380;0.098;2022-09-12T15:30:47;18.80;90.60
63094;DHT22;49183;51.380;0.098;2022-09-12T15:33:18;18.80;90.50
63094;DHT22;49183;51.380;0.098;2022-09-12T15:35:47;18.80;90.50
63094;DHT22;49183;51.380;0.098;2022-09-12T15:38:15;18.80;90.50
63094;DHT22;49183;51.380;0.098;2022-09-12T15:40:43;18.90;90.50
63094;DHT22;49183;51.380;0.098;2022-09-12T15:43:12;19.00;90.50
63094;DHT22;49183;51.380;0.098;2022-09-12T15:45:43;19.10;90.50
63094;DHT22;49183;51.380;0.098;2022-09-12T15:48:12;19.10;90.40
63094;DHT22;49183;51.380;0.098;2022-09-12T15:50:40;19.10;90.40
63094;DHT22;49183;51.380;0.098;2022-09-12T15:53:13;19.10;90.30
63094;DHT22;49183;51.380;0.098;2022-09-12T15:55:41;19.10;90.40
63094;DHT22;49183;51.380;0.098;2022-09-12T15:58:09;19.10;90.40
63094;DHT22;49183;51.380;0.098;2022-09-12T16:00:37;19.10;90.40
63094;DHT22;49183;51.380;0.098;2022-09-12T16:03:04;19.10;90.50
63094;DHT22;49183;51.380;0.098;2022-09-12T16:05:32;19.10;90.50
63094;DHT22;49183;51.380;0.098;2022-09-12T16:08:00;19.10;90.50
63094;DHT22;49183;51.380;0.098;2022-09-12T16:10:29;19.10;90.40
63094;DHT22;49183;51.380;0.098;2022-09-12T16:12:56;19.10;90.40
63094;DHT22;49183;51.380;0.098;2022-09-12T16:15:25;19.00;90.40
63094;DHT22;49183;51.380;0.098;2022-09-12T16:17:53;19.00;90.40
63094;DHT22;49183;51.380;0.098;2022-09-12T16:20:20;18.90;90.40
63094;DHT22;49183;51.380;0.098;2022-09-12T16:22:49;18.80;90.50
63094;DHT22;49183;51.380;0.098;2022-09-12T16:25:16;18.80;90.60
63094;DHT22;49183;51.380;0.098;2022-09-12T16:27:44;18.80;90.60
63094;DHT22;49183;51.380;0.098;2022-09-12T16:30:12;18.80;90.70
63094;DHT22;49183;51.380;0.098;2022-09-12T16:32:40;18.80;90.70
63094;DHT22;49183;51.380;0.098;2022-09-12T16:35:08;18.70;90.70
63094;DHT22;49183;51.380;0.098;2022-09-12T16:37:36;18.70;90.70
63094;DHT22;49183;51.380;0.098;2022-09-12T16:40:04;18.70;90.70
63094;DHT22;49183;51.380;0.098;2022-09-12T16:42:32;18.70;90.70
63094;DHT22;49183;51.380;0.098;2022-09-12T16:45:00;18.70;90.80
63094;DHT22;49183;51.380;0.098;2022-09-12T16:47:28;18.70;90.80
63094;DHT22;49183;51.380;0.098;2022-09-12T16:49:58;18.60;90.80
63094;DHT22;49183;51.380;0.098;2022-09-12T16:52:26;18.60;90.80
63094;DHT22;49183;51.380;0.098;2022-09-12T16:54:53;18.50;90.80
63094;DHT22;49183;51.380;0.098;2022-09-12T16:57:21;18.50;90.80
63094;DHT22;49183;51.380;0.098;2022-09-12T16:59:49;18.40;90.90
63094;DHT22;49183;51.380;0.098;2022-09-12T17:02:17;18.40;90.90
63094;DHT22;49183;51.380;0.098;2022-09-12T17:04:45;18.30;90.90
63094;DHT22;49183;51.380;0.098;2022-09-12T17:07:12;18.30;90.90
63094;DHT22;49183;51.380;0.098;2022-09-12T17:09:40;18.30;91.00
63094;DHT22;49183;51.380;0.098;2022-09-12T17:12:13;18.20;91.10
63094;DHT22;49183;51.380;0.098;2022-09-12T17:14:41;18.20;91.10
63094;DHT22;49183;51.380;0.098;2022-09-12T17:17:09;18.10;91.20
63094;DHT22;49183;51.380;0.098;2022-09-12T17:19:36;18.00;91.20
63094;DHT22;49183;51.380;0.098;2022-09-12T17:22:04;17.90;91.30
63094;DHT22;49183;51.380;0.098;2022-09-12T17:24:31;17.90;91.40
63094;DHT22;49183;51.380;0.098;2022-09-12T17:27:00;17.80;91.40
63094;DHT22;49183;51.380;0.098;2022-09-12T17:29:27;17.80;91.50
63094;DHT22;49183;51.380;0.098;2022-09-12T17:31:55;17.80;91.50
63094;DHT22;49183;51.380;0.098;2022-09-12T17:34:23;17.70;91.60
63094;DHT22;49183;51.380;0.098;2022-09-12T17:36:51;17.60;91.60
63094;DHT22;49183;51.380;0.098;2022-09-12T17:39:18;17.60;91.60
63094;DHT22;49183;51.380;0.098;2022-09-12T17:41:46;17.50;91.70
63094;DHT22;49183;51.380;0.098;2022-09-12T17:44:17;17.40;91.80
63094;DHT22;49183;51.380;0.098;2022-09-12T17:46:46;17.30;91.80
63094;DHT22;49183;51.380;0.098;2022-09-12T17:49:15;17.30;91.90
63094;DHT22;49183;51.380;0.098;2022-09-12T17:51:44;17.30;91.90
63094;DHT22;49183;51.380;0.098;2022-09-12T17:54:14;17.10;91.90
63094;DHT22;49183;51.380;0.098;2022-09-12T17:56:51;17.10;92.00
63094;DHT22;49183;51.380;0.098;2022-09-12T17:59:21;17.00;92.00
63094;DHT22;49183;51.380;0.098;2022-09-12T18:01:51;16.90;92.10
63094;DHT22;49183;51.380;0.098;2022-09-12T18:04:37;16.80;92.20
63094;DHT22;49183;51.380;0.098;2022-09-12T18:07:07;16.80;92.20
63094;DHT22;49183;51.380;0.098;2022-09-12T18:09:35;16.80;92.20
63094;DHT22;49183;51.380;0.098;2022-09-12T18:12:03;16.80;92.20
63094;DHT22;49183;51.380;0.098;2022-09-12T18:14:30;16.70;92.30
63094;DHT22;49183;51.380;0.098;2022-09-12T18:16:58;16.70;92.20
63094;DHT22;49183;51.380;0.098;2022-09-12T18:19:27;16.70;92.20
63094;DHT22;49183;51.380;0.098;2022-09-12T18:21:55;16.60;92.30
63094;DHT22;49183;51.380;0.098;2022-09-12T18:24:22;16.60;92.30
63094;DHT22;49183;51.380;0.098;2022-09-12T18:26:50;16.50;92.30
63094;DHT22;49183;51.380;0.098;2022-09-12T18:29:18;16.50;92.30
63094;DHT22;49183;51.380;0.098;2022-09-12T18:31:46;16.50;92.30
63094;DHT22;49183;51.380;0.098;2022-09-12T18:34:15;16.50;92.30
63094;DHT22;49183;51.380;0.098;2022-09-12T18:36:47;16.40;92.30
63094;DHT22;49183;51.380;0.098;2022-09-12T18:39:16;16.40;92.30
63094;DHT22;49183;51.380;0.098;2022-09-12T18:41:44;16.40;92.40
63094;DHT22;49183;51.380;0.098;2022-09-12T18:44:12;16.30;92.40
63094;DHT22;49183;51.380;0.098;2022-09-12T18:46:39;16.40;92.50
63094;DHT22;49183;51.380;0.098;2022-09-12T18:49:07;16.30;92.40
63094;DHT22;49183;51.380;0.098;2022-09-12T18:51:36;16.30;92.50